Time;durP1;ratioP1;P1;durP2;ratioP2;P2;SDS_P1;SDS_P2;PMS_P1;PMS_P2;Temp;Humidity;BMP_temperature;BMP_pressure;BME280_temperature;BME280_humidity;BME280_pressure;Samples;Min_cycle;Max_cycle;Signal;HPM_P1;HPM_P2
2023/09/02 00:13:29;;;;;;;2.83;2.33;;;;;;;12.65;100.00;96083.22;7429272;19;20456;-96
2023/09/02 00:16:45;;;;;;;2.20;2.00;;;;;;;13.40;100.00;96191.06;7435439;19;20401;-95
2023/09/02 00:19:33;;;;;;;6.63;6.00;;;;;;;11.81;100.00;95966.94;7438327;19;20361;-96
2023/09/02 00:22:15;;;;;;;3.87;3.50;;;;;;;13.34;100.00;96199.63;7440167;19;20378;-95
2023/09/02 00:29:03;;;;;;;;;;;;;;;;;;;;;
2023/09/02 00:32:24;;;;;;;2.47;2.27;;;;;;;12.22;100.00;96068.22;7435628;19;20395;-96
2023/09/02 00:35:37;;;;;;;3.90;1.90;;;;;;;12.28;100.00;96093.34;7437240;19;20444;-96
2023/09/02 00:42:16;;;;;;;5.70;2.43;;;;;;;12.93;100.00;96183.16;7436296;19;20365;-95
2023/09/02 00:45:06;;;;;;;3.13;1.90;;;;;;;11.43;100.00;95969.38;7437017;19;20487;-95
2023/09/02 00:48:15;;;;;;;3.57;1.93;;;;;;;11.28;100.00;95964.81;7437732;19;20405;-96
2023/09/02 00:51:33;;;;;;;;;;;;;;;;;;;;;
2023/09/02 03:50:30;;;;;;;5.33;2.53;;;;;;;13.09;100.00;96250.28;7430528;19;20422;-96
2023/09/02 03:53:01;;;;;;;3.20;2.67;;;;;;;12.10;100.00;96113.34;7430629;19;20380;-96
2023/09/02 03:55:43;;;;;;;2.50;2.30;;;;;;;12.22;100.00;96137.13;7430863;19;20408;-95
2023/09/02 03:58:16;;;;;;;3.00;2.27;;;;;;;12.20;100.00;96147.31;7431400;19;20360;-95
2023/09/02 04:00:46;;;;;;;2.73;2.30;;;;;;;12.22;100.00;96123.88;7430578;19;20407;-96
2023/09/02 04:03:24;;;;;;;4.30;2.23;;;;;;;12.32;100.00;96131.34;7428885;19;20392;-96
2023/09/02 04:06:11;;;;;;;2.30;2.10;;;;;;;12.13;100.00;96107.38;7426592;19;20428;-96
2023/09/02 04:08:55;;;;;;;2.93;2.63;;;;;;;11.65;100.00;96042.19;7430672;19;20404;-96
2023/09/02 04:11:30;;;;;;;4.53;3.00;;;;;;;11.81;100.00;96072.91;7429305;19;20373;-96
2023/09/02 04:14:16;;;;;;;2.83;2.40;;;;;;;11.52;100.00;96012.34;7436634;19;20380;-94
2023/09/02 04:16:47;;;;;;;3.50;2.23;;;;;;;11.60;100.00;96048.47;7434022;19;20376;-96
2023/09/02 04:19:19;;;;;;;3.20;2.20;;;;;;;11.46;100.00;96042.81;7436122;19;20400;-95
2023/09/02 04:21:46;;;;;;;6.30;2.20;;;;;;;13.10;100.00;96274.94;7437223;19;20384;-96
2023/09/02 04:24:14;;;;;;;7.37;2.43;;;;;;;11.61;100.00;96057.97;7435538;19;20417;-95
2023/09/02 04:41:56;;;;;;;2.77;2.53;;;;;;;11.02;100.00;96010.25;7422851;19;20452;-96
2023/09/02 04:44:36;;;;;;;6.60;2.93;;;;;;;12.01;100.00;96136.59;7432837;19;20369;-96
2023/09/02 04:47:23;;;;;;;3.73;2.50;;;;;;;12.11;100.00;96152.00;7427601;19;20481;-96
2023/09/02 04:49:59;;;;;;;5.20;2.47;;;;;;;11.11;100.00;96016.94;7433683;19;20400;-96
2023/09/02 04:52:41;;;;;;;3.73;3.43;;;;;;;12.03;100.00;96131.75;7437139;19;20407;-96
2023/09/02 04:55:16;;;;;;;4.57;4.17;;;;;;;12.06;100.00;96152.25;7432881;19;20389;-94
2023/09/02 04:57:48;;;;;;;4.07;3.60;;;;;;;11.89;100.00;96128.72;7431723;19;20427;-93
2023/09/02 05:00:40;;;;;;;3.63;2.73;;;;;;;11.28;100.00;96017.75;7436529;19;20399;-94
2023/09/02 05:03:22;;;;;;;2.80;2.03;;;;;;;12.00;100.00;96124.44;7435558;19;20369;-94
2023/09/02 05:06:07;;;;;;;2.47;2.27;;;;;;;12.08;100.00;96145.50;7432277;19;20373;-95
2023/09/02 05:08:44;;;;;;;2.37;2.20;;;;;;;13.31;100.00;96333.88;7433061;19;20377;-95
2023/09/02 05:11:31;;;;;;;2.77;2.57;;;;;;;12.46;100.00;96197.19;7430034;19;20387;-96
2023/09/02 05:14:07;;;;;;;3.33;2.60;;;;;;;11.30;100.00;96018.19;7436523;19;20384;-94
2023/09/02 05:16:58;;;;;;;2.70;2.50;;;;;;;11.41;100.00;96043.84;7433939;19;20416;-96
2023/09/02 05:19:35;;;;;;;2.13;1.93;;;;;;;12.18;100.00;96157.50;7434319;19;20388;-95
2023/09/02 05:22:23;;;;;;;3.80;2.50;;;;;;;11.36;100.00;96038.78;7435766;19;20392;-95
2023/09/02 05:25:11;;;;;;;2.53;2.33;;;;;;;11.22;100.00;96028.59;7432103;19;20439;-95
2023/09/02 05:27:52;;;;;;;2.90;2.20;;;;;;;11.34;100.00;96045.50;7431180;19;20424;-96
2023/09/02 05:30:28;;;;;;;2.93;2.20;;;;;;;12.94;100.00;96264.31;7431979;19;20412;-95
2023/09/02 05:33:10;;;;;;;2.60;2.27;;;;;;;11.40;100.00;96025.66;7434945;19;20391;-95
2023/09/02 05:36:14;;;;;;;2.47;2.27;;;;;;;12.31;100.00;96161.63;7433852;19;20413;-95
2023/09/02 05:38:52;;;;;;;6.57;3.20;;;;;;;12.62;100.00;96221.06;7433161;19;20399;-95
2023/09/02 05:41:35;;;;;;;3.53;2.93;;;;;;;11.52;100.00;96039.59;7435223;19;20384;-95
2023/09/02 05:44:03;;;;;;;4.33;2.53;;;;;;;12.46;100.00;96186.59;7434380;19;20381;-95
2023/09/02 05:46:42;;;;;;;6.30;2.70;;;;;;;11.50;100.00;96031.22;7431360;19;20486;-95
2023/09/02 05:49:13;;;;;;;5.43;2.70;;;;;;;11.69;100.00;96043.03;7433099;19;20444;-95
2023/09/02 05:52:06;;;;;;;3.40;3.10;;;;;;;12.76;100.00;96170.25;7433067;19;20364;-95
2023/09/02 05:54:41;;;;;;;3.37;3.10;;;;;;;12.61;100.00;96139.97;7431615;19;20431;-95
2023/09/02 05:57:27;;;;;;;3.87;2.40;;;;;;;12.82;100.00;96176.81;7431453;19;20442;-94
2023/09/02 05:59:59;;;;;;;2.67;2.47;;;;;;;13.20;100.00;96208.06;7432229;19;20413;-95
2023/09/02 06:02:53;;;;;;;3.10;2.17;;;;;;;14.27;100.00;96354.59;7431232;19;20404;-95
2023/09/02 06:05:21;;;;;;;3.10;2.80;;;;;;;12.42;100.00;96077.81;7432971;19;20423;-95
2023/09/02 06:08:11;;;;;;;4.60;2.10;;;;;;;12.39;100.00;96075.03;7432144;19;20392;-95
2023/09/02 06:10:44;;;;;;;2.30;2.10;;;;;;;12.50;100.00;96085.91;7433114;19;20406;-95
2023/09/02 06:13:17;;;;;;;4.30;2.10;;;;;;;14.44;100.00;96378.19;7431611;19;20396;-96
2023/09/02 06:15:46;;;;;;;2.40;2.20;;;;;;;12.31;100.00;96042.31;7433879;19;20369;-95
2023/09/02 06:18:22;;;;;;;2.73;2.53;;;;;;;13.70;100.00;96233.03;7432766;19;20388;-95
2023/09/02 06:21:17;;;;;;;4.37;3.20;;;;;;;12.93;100.00;96074.34;7432054;19;20392;-95
2023/09/02 06:23:58;;;;;;;4.90;2.53;;;;;;;13.13;100.00;96102.47;7431234;19;20410;-95
2023/09/02 06:26:46;;;;;;;5.13;2.87;;;;;;;12.95;100.00;96080.88;7432002;19;20447;-95
2023/09/02 06:29:21;;;;;;;3.90;3.30;;;;;;;14.05;100.00;96240.97;7432292;19;20432;-95
2023/09/02 06:31:53;;;;;;;2.63;2.37;;;;;;;13.56;100.00;96178.50;7431726;19;20388;-95
2023/09/02 06:38:03;;;;;;;3.53;2.50;;;;;;;12.87;100.00;96084.47;7430590;19;20424;-95
2023/09/02 07:18:35;;;;;;;2.87;2.67;;;;;;;15.72;100.00;96422.34;7426181;19;20397;-94
2023/09/02 08:02:18;;;;;;;2.37;2.13;;;;;;;14.95;100.00;96409.94;7434697;19;20444;-96
2023/09/02 08:05:16;;;;;;;4.00;2.40;;;;;;;15.70;100.00;96463.81;7436400;19;20404;-96
2023/09/02 08:14:03;;;;;;;2.10;1.90;;;;;;;14.45;100.00;96320.44;7427949;19;20458;-95
2023/09/02 08:20:14;;;;;;;3.87;1.90;;;;;;;13.49;100.00;96178.38;7438397;19;20444;-95
2023/09/02 08:47:19;;;;;;;2.80;2.50;;;;;;;14.72;100.00;96209.53;7430872;19;20444;-93
2023/09/02 08:49:55;;;;;;;2.33;2.23;;;;;;;14.88;100.00;96226.13;7432744;19;20384;-95
2023/09/02 08:52:42;;;;;;;2.17;2.07;;;;;;;16.67;100.00;96448.09;7437282;19;20482;-94
2023/09/02 09:01:46;;;;;;;1.87;1.77;;;;;;;14.81;100.00;96238.53;7434136;19;20397;-94
2023/09/02 09:07:33;;;;;;;2.43;2.33;;;;;;;17.42;100.00;96538.72;7415565;19;20489;-95
2023/09/02 09:10:15;;;;;;;1.93;1.83;;;;;;;15.96;100.00;96304.63;7431672;19;20384;-94
2023/09/02 09:12:59;;;;;;;2.83;1.77;;;;;;;15.83;100.00;96273.22;7429846;19;20448;-94
2023/09/02 09:15:43;;;;;;;2.13;2.03;;;;;;;16.24;100.00;96370.16;7435663;19;20399;-94
2023/09/02 09:18:26;;;;;;;3.13;2.03;;;;;;;14.96;100.00;96216.38;7432299;19;20373;-94
2023/09/02 09:21:26;;;;;;;2.40;2.20;;;;;;;17.36;100.00;96523.38;7432930;19;20413;-95
2023/09/02 09:24:10;;;;;;;3.27;3.00;;;;;;;16.93;100.00;96431.28;7432567;19;20396;-94
2023/09/02 09:26:56;;;;;;;2.27;2.07;;;;;;;17.68;100.00;96561.97;7431456;19;20441;-94
2023/09/02 09:29:24;;;;;;;1.90;1.80;;;;;;;16.23;100.00;96416.63;7435295;19;20373;-95
2023/09/02 09:32:14;;;;;;;2.17;1.97;;;;;;;14.75;100.00;96220.22;7430815;19;20425;-95
2023/09/02 09:35:07;;;;;;;2.33;2.13;;;;;;;16.39;100.00;96390.56;7434973;19;20385;-95
2023/09/02 09:38:22;;;;;;;1.97;1.87;;;;;;;15.82;100.00;96269.78;7432551;19;20433;-95
2023/09/02 09:41:02;;;;;;;2.80;2.60;;;;;;;16.18;100.00;96284.34;7433900;19;20384;-95
2023/09/02 09:43:45;;;;;;;2.23;2.13;;;;;;;17.82;100.00;96507.84;7433551;19;20390;-96
2023/09/02 09:46:44;;;;;;;2.63;2.43;;;;;;;16.57;100.00;96307.28;7434741;19;20417;-96
2023/09/02 09:49:41;;;;;;;1.83;1.73;;;;;;;16.12;100.00;96245.00;7431342;19;20377;-95
2023/09/02 10:13:03;;;;;;;2.37;2.17;;;;;;;18.76;100.00;96601.94;7432293;19;20417;-96
2023/09/02 10:16:31;;;;;;;2.37;2.00;;;;;;;18.79;100.00;96598.50;7431914;19;20397;-96
2023/09/02 10:19:06;;;;;;;2.50;2.37;;;;;;;17.30;100.00;96400.00;7432480;19;20399;-95
2023/09/02 10:22:01;;;;;;;2.27;2.07;;;;;;;16.20;100.00;96297.31;7428062;19;20377;-95
2023/09/02 10:25:29;;;;;;;3.37;2.07;;;;;;;18.02;100.00;96596.69;7430805;19;20380;-96
2023/09/02 10:31:22;;;;;;;2.83;2.57;;;;;;;17.98;100.00;96590.53;7393771;19;20436;-95
2023/09/02 10:34:28;;;;;;;4.80;2.50;;;;;;;18.05;100.00;96592.53;7433828;19;20409;-96
2023/09/02 10:38:03;;;;;;;1.80;1.70;;;;;;;16.65;100.00;96277.59;7430802;19;20444;-95
2023/09/02 10:40:58;;;;;;;3.30;3.10;;;;;;;16.29;100.00;96279.09;7427912;19;20456;-96
2023/09/02 11:54:14;;;;;;;2.40;1.93;;;;;;;19.16;100.00;96428.69;7434651;19;20401;-96
2023/09/02 12:30:52;;;;;;;1.70;1.60;;;;;;;21.78;100.00;96617.72;7319303;19;20472;-96
2023/09/02 12:33:26;;;;;;;1.73;1.63;;;;;;;20.85;100.00;96406.75;7437261;19;20425;-95
2023/09/02 12:42:32;;;;;;;1.70;1.60;;;;;;;21.55;100.00;96598.59;7425641;19;20499;-94
2023/09/02 12:45:21;;;;;;;3.60;1.73;;;;;;;21.12;100.00;96504.59;7434139;19;20415;-96
2023/09/02 12:48:50;;;;;;;1.60;1.50;;;;;;;20.34;100.00;96279.13;7435270;19;20422;-96
2023/09/02 16:17:03;;;;;;;2.13;1.23;;;;;;;20.27;100.00;96478.63;7423246;19;20448;-94
2023/09/02 16:20:33;;;;;;;1.47;1.13;;;;;;;21.43;100.00;96637.44;7441311;19;20357;-96
2023/09/02 16:38:22;;;;;;;2.60;1.40;;;;;;;19.44;100.00;96503.84;7431292;19;20409;-95
2023/09/02 16:44:32;;;;;;;1.50;1.40;;;;;;;18.05;100.00;96296.25;7400466;19;20459;-95
2023/09/02 16:50:36;;;;;;;1.60;1.50;;;;;;;18.27;100.00;96305.13;7432610;19;20421;-96
2023/09/02 18:07:40;;;;;;;2.97;1.57;;;;;;;16.11;100.00;96382.16;7395868;19;20428;-95
2023/09/02 23:43:31;;;;;;;;;;;;;;;;;;;;;
2023/09/02 23:51:16;;;;;;;;;;;;;;;;;;;;;
